sensor_id;sensor_type;location;lat;lon;timestamp;P1;durP1;ratioP1;P2;durP2;ratioP2
70138;SDS011;57507;43.056;0.150;2023-09-19T00:00:55;0.82;;;0.43;;
70138;SDS011;57507;43.056;0.150;2023-09-19T00:03:21;1.48;;;0.50;;
70138;SDS011;57507;43.056;0.150;2023-09-19T00:05:48;0.80;;;0.30;;
70138;SDS011;57507;43.056;0.150;2023-09-19T00:08:15;0.77;;;0.63;;
70138;SDS011;57507;43.056;0.150;2023-09-19T00:10:42;1.15;;;0.70;;
70138;SDS011;57507;43.056;0.150;2023-09-19T00:13:08;0.55;;;0.50;;
70138;SDS011;57507;43.056;0.150;2023-09-19T00:15:42;1.10;;;0.30;;
70138;SDS011;57507;43.056;0.150;2023-09-19T00:18:13;0.50;;;0.47;;
70138;SDS011;57507;43.056;0.150;2023-09-19T00:20:40;1.30;;;0.60;;
70138;SDS011;57507;43.056;0.150;2023-09-19T00:23:07;0.80;;;0.40;;
70138;SDS011;57507;43.056;0.150;2023-09-19T00:25:34;0.52;;;0.40;;
70138;SDS011;57507;43.056;0.150;2023-09-19T00:28:00;0.70;;;0.50;;
70138;SDS011;57507;43.056;0.150;2023-09-19T00:30:26;0.80;;;0.50;;
70138;SDS011;57507;43.056;0.150;2023-09-19T00:32:52;1.48;;;0.50;;
70138;SDS011;57507;43.056;0.150;2023-09-19T00:35:20;0.63;;;0.50;;
70138;SDS011;57507;43.056;0.150;2023-09-19T00:37:48;0.90;;;0.50;;
70138;SDS011;57507;43.056;0.150;2023-09-19T00:40:14;1.63;;;0.50;;
70138;SDS011;57507;43.056;0.150;2023-09-19T00:42:42;0.20;;;0.20;;
70138;SDS011;57507;43.056;0.150;2023-09-19T00:45:08;1.23;;;0.50;;
70138;SDS011;57507;43.056;0.150;2023-09-19T00:47:36;0.82;;;0.45;;
70138;SDS011;57507;43.056;0.150;2023-09-19T00:50:03;0.85;;;0.50;;
70138;SDS011;57507;43.056;0.150;2023-09-19T00:52:32;0.65;;;0.45;;
70138;SDS011;57507;43.056;0.150;2023-09-19T00:54:59;0.40;;;0.40;;
70138;SDS011;57507;43.056;0.150;2023-09-19T00:57:25;0.77;;;0.55;;
70138;SDS011;57507;43.056;0.150;2023-09-19T00:59:51;1.52;;;0.50;;
70138;SDS011;57507;43.056;0.150;2023-09-19T01:02:19;0.77;;;0.65;;
70138;SDS011;57507;43.056;0.150;2023-09-19T01:04:46;1.95;;;0.60;;
70138;SDS011;57507;43.056;0.150;2023-09-19T01:07:12;1.20;;;0.60;;
70138;SDS011;57507;43.056;0.150;2023-09-19T01:09:40;0.60;;;0.50;;
70138;SDS011;57507;43.056;0.150;2023-09-19T01:12:06;1.85;;;0.55;;
70138;SDS011;57507;43.056;0.150;2023-09-19T01:17:08;1.67;;;0.70;;
70138;SDS011;57507;43.056;0.150;2023-09-19T01:29:46;1.08;;;0.50;;
70138;SDS011;57507;43.056;0.150;2023-09-19T01:32:19;0.77;;;0.50;;
70138;SDS011;57507;43.056;0.150;2023-09-19T01:34:50;0.80;;;0.40;;
70138;SDS011;57507;43.056;0.150;2023-09-19T01:37:18;0.93;;;0.52;;
70138;SDS011;57507;43.056;0.150;2023-09-19T01:39:52;1.70;;;0.80;;
70138;SDS011;57507;43.056;0.150;2023-09-19T01:42:35;0.90;;;0.60;;
70138;SDS011;57507;43.056;0.150;2023-09-19T01:47:34;2.05;;;0.75;;
70138;SDS011;57507;43.056;0.150;2023-09-19T01:52:35;2.13;;;0.77;;
70138;SDS011;57507;43.056;0.150;2023-09-19T01:55:05;1.42;;;0.90;;
70138;SDS011;57507;43.056;0.150;2023-09-19T01:57:37;1.50;;;0.95;;
70138;SDS011;57507;43.056;0.150;2023-09-19T02:00:07;1.20;;;0.70;;
70138;SDS011;57507;43.056;0.150;2023-09-19T02:02:36;1.70;;;0.90;;
70138;SDS011;57507;43.056;0.150;2023-09-19T02:05:03;1.50;;;0.82;;
70138;SDS011;57507;43.056;0.150;2023-09-19T02:07:30;1.88;;;0.65;;
70138;SDS011;57507;43.056;0.150;2023-09-19T02:09:59;2.17;;;0.70;;
70138;SDS011;57507;43.056;0.150;2023-09-19T02:12:26;0.95;;;0.80;;
70138;SDS011;57507;43.056;0.150;2023-09-19T02:14:52;0.75;;;0.70;;
70138;SDS011;57507;43.056;0.150;2023-09-19T02:17:18;0.70;;;0.63;;
70138;SDS011;57507;43.056;0.150;2023-09-19T02:19:44;1.60;;;0.77;;
70138;SDS011;57507;43.056;0.150;2023-09-19T02:22:10;1.27;;;0.80;;
70138;SDS011;57507;43.056;0.150;2023-09-19T02:24:37;1.15;;;0.88;;
70138;SDS011;57507;43.056;0.150;2023-09-19T02:27:03;1.08;;;0.98;;
70138;SDS011;57507;43.056;0.150;2023-09-19T02:29:29;2.40;;;0.80;;
70138;SDS011;57507;43.056;0.150;2023-09-19T02:31:55;1.70;;;1.00;;
70138;SDS011;57507;43.056;0.150;2023-09-19T02:34:22;1.30;;;0.90;;
70138;SDS011;57507;43.056;0.150;2023-09-19T02:36:48;1.05;;;0.82;;
70138;SDS011;57507;43.056;0.150;2023-09-19T02:39:14;1.33;;;0.88;;
70138;SDS011;57507;43.056;0.150;2023-09-19T02:41:40;1.42;;;0.60;;
70138;SDS011;57507;43.056;0.150;2023-09-19T02:44:07;0.88;;;0.80;;
70138;SDS011;57507;43.056;0.150;2023-09-19T02:46:33;1.83;;;0.80;;
70138;SDS011;57507;43.056;0.150;2023-09-19T02:49:01;1.50;;;0.70;;
70138;SDS011;57507;43.056;0.150;2023-09-19T02:51:30;1.90;;;0.93;;
70138;SDS011;57507;43.056;0.150;2023-09-19T02:53:56;1.40;;;0.82;;
70138;SDS011;57507;43.056;0.150;2023-09-19T02:56:22;1.52;;;1.00;;
70138;SDS011;57507;43.056;0.150;2023-09-19T02:58:50;1.63;;;0.80;;
70138;SDS011;57507;43.056;0.150;2023-09-19T03:01:16;0.88;;;0.73;;
70138;SDS011;57507;43.056;0.150;2023-09-19T03:03:43;2.38;;;1.20;;
70138;SDS011;57507;43.056;0.150;2023-09-19T03:06:10;1.98;;;1.00;;
70138;SDS011;57507;43.056;0.150;2023-09-19T03:08:38;2.85;;;0.80;;
70138;SDS011;57507;43.056;0.150;2023-09-19T03:11:07;2.08;;;1.10;;
70138;SDS011;57507;43.056;0.150;2023-09-19T03:13:36;0.73;;;0.65;;
70138;SDS011;57507;43.056;0.150;2023-09-19T03:16:03;1.35;;;0.85;;
70138;SDS011;57507;43.056;0.150;2023-09-19T03:18:35;1.15;;;0.82;;
70138;SDS011;57507;43.056;0.150;2023-09-19T03:21:02;1.98;;;0.90;;
70138;SDS011;57507;43.056;0.150;2023-09-19T03:23:28;1.40;;;0.80;;
70138;SDS011;57507;43.056;0.150;2023-09-19T03:25:54;1.20;;;1.00;;
70138;SDS011;57507;43.056;0.150;2023-09-19T03:28:21;1.85;;;0.90;;
70138;SDS011;57507;43.056;0.150;2023-09-19T03:31:01;1.77;;;0.90;;
70138;SDS011;57507;43.056;0.150;2023-09-19T03:33:27;0.80;;;0.70;;
70138;SDS011;57507;43.056;0.150;2023-09-19T03:35:53;1.45;;;0.88;;
70138;SDS011;57507;43.056;0.150;2023-09-19T03:38:20;2.30;;;1.13;;
70138;SDS011;57507;43.056;0.150;2023-09-19T03:40:47;2.05;;;1.00;;
70138;SDS011;57507;43.056;0.150;2023-09-19T03:43:14;1.33;;;0.93;;
70138;SDS011;57507;43.056;0.150;2023-09-19T03:45:40;1.35;;;0.90;;
70138;SDS011;57507;43.056;0.150;2023-09-19T03:48:09;1.38;;;0.88;;
70138;SDS011;57507;43.056;0.150;2023-09-19T03:50:35;1.25;;;1.15;;
70138;SDS011;57507;43.056;0.150;2023-09-19T03:53:01;1.33;;;0.98;;
70138;SDS011;57507;43.056;0.150;2023-09-19T03:55:28;1.30;;;0.90;;
70138;SDS011;57507;43.056;0.150;2023-09-19T03:57:55;1.15;;;0.80;;
70138;SDS011;57507;43.056;0.150;2023-09-19T04:00:21;2.38;;;1.00;;
70138;SDS011;57507;43.056;0.150;2023-09-19T04:02:49;1.70;;;0.85;;
70138;SDS011;57507;43.056;0.150;2023-09-19T04:05:15;2.40;;;0.85;;
70138;SDS011;57507;43.056;0.150;2023-09-19T04:07:41;1.42;;;0.90;;
70138;SDS011;57507;43.056;0.150;2023-09-19T04:10:07;2.55;;;0.90;;
70138;SDS011;57507;43.056;0.150;2023-09-19T04:12:35;1.52;;;1.00;;
70138;SDS011;57507;43.056;0.150;2023-09-19T04:15:01;1.08;;;0.80;;
70138;SDS011;57507;43.056;0.150;2023-09-19T04:17:27;1.75;;;0.90;;
70138;SDS011;57507;43.056;0.150;2023-09-19T04:19:53;1.65;;;0.95;;
70138;SDS011;57507;43.056;0.150;2023-09-19T04:22:19;1.50;;;0.90;;
70138;SDS011;57507;43.056;0.150;2023-09-19T04:24:45;1.23;;;1.00;;
70138;SDS011;57507;43.056;0.150;2023-09-19T04:27:11;2.38;;;1.10;;
70138;SDS011;57507;43.056;0.150;2023-09-19T04:29:39;2.28;;;0.85;;
70138;SDS011;57507;43.056;0.150;2023-09-19T04:32:06;2.30;;;1.00;;
70138;SDS011;57507;43.056;0.150;2023-09-19T04:34:33;1.75;;;0.80;;
70138;SDS011;57507;43.056;0.150;2023-09-19T04:37:05;1.60;;;1.00;;
70138;SDS011;57507;43.056;0.150;2023-09-19T04:39:31;3.60;;;1.00;;
70138;SDS011;57507;43.056;0.150;2023-09-19T04:41:57;1.63;;;1.00;;
70138;SDS011;57507;43.056;0.150;2023-09-19T04:44:23;2.30;;;0.80;;
70138;SDS011;57507;43.056;0.150;2023-09-19T04:46:49;1.38;;;0.90;;
70138;SDS011;57507;43.056;0.150;2023-09-19T04:49:16;1.73;;;1.00;;
70138;SDS011;57507;43.056;0.150;2023-09-19T04:51:43;1.05;;;0.95;;
70138;SDS011;57507;43.056;0.150;2023-09-19T04:54:11;1.98;;;0.93;;
70138;SDS011;57507;43.056;0.150;2023-09-19T04:56:38;3.47;;;1.10;;
70138;SDS011;57507;43.056;0.150;2023-09-19T04:59:05;2.35;;;0.77;;
70138;SDS011;57507;43.056;0.150;2023-09-19T05:01:31;0.93;;;0.82;;
70138;SDS011;57507;43.056;0.150;2023-09-19T05:03:57;1.58;;;0.88;;
70138;SDS011;57507;43.056;0.150;2023-09-19T05:06:23;1.98;;;0.80;;
70138;SDS011;57507;43.056;0.150;2023-09-19T05:08:51;2.25;;;0.90;;
70138;SDS011;57507;43.056;0.150;2023-09-19T05:11:18;1.20;;;0.80;;
70138;SDS011;57507;43.056;0.150;2023-09-19T05:13:47;1.42;;;1.05;;
70138;SDS011;57507;43.056;0.150;2023-09-19T05:16:15;1.73;;;0.90;;
70138;SDS011;57507;43.056;0.150;2023-09-19T05:18:41;1.60;;;0.90;;
70138;SDS011;57507;43.056;0.150;2023-09-19T05:21:07;1.40;;;0.88;;
70138;SDS011;57507;43.056;0.150;2023-09-19T05:23:33;1.10;;;1.00;;
70138;SDS011;57507;43.056;0.150;2023-09-19T05:25:59;2.17;;;1.00;;
70138;SDS011;57507;43.056;0.150;2023-09-19T05:28:26;2.10;;;1.25;;
70138;SDS011;57507;43.056;0.150;2023-09-19T05:30:52;1.35;;;1.10;;
70138;SDS011;57507;43.056;0.150;2023-09-19T05:33:18;1.33;;;0.98;;
70138;SDS011;57507;43.056;0.150;2023-09-19T05:35:45;1.50;;;0.80;;
70138;SDS011;57507;43.056;0.150;2023-09-19T05:38:13;1.33;;;0.95;;
70138;SDS011;57507;43.056;0.150;2023-09-19T05:40:39;2.03;;;1.23;;
70138;SDS011;57507;43.056;0.150;2023-09-19T05:43:10;1.27;;;0.93;;
70138;SDS011;57507;43.056;0.150;2023-09-19T05:45:36;1.60;;;0.88;;
70138;SDS011;57507;43.056;0.150;2023-09-19T05:48:12;1.67;;;1.05;;
70138;SDS011;57507;43.056;0.150;2023-09-19T05:50:41;1.33;;;0.90;;
70138;SDS011;57507;43.056;0.150;2023-09-19T05:53:07;2.63;;;1.00;;
70138;SDS011;57507;43.056;0.150;2023-09-19T05:55:33;1.38;;;1.10;;
70138;SDS011;57507;43.056;0.150;2023-09-19T05:58:00;1.48;;;1.10;;
70138;SDS011;57507;43.056;0.150;2023-09-19T06:00:28;1.40;;;0.90;;
70138;SDS011;57507;43.056;0.150;2023-09-19T06:02:57;2.30;;;1.15;;
70138;SDS011;57507;43.056;0.150;2023-09-19T06:05:23;3.10;;;1.25;;
70138;SDS011;57507;43.056;0.150;2023-09-19T06:07:51;1.98;;;0.98;;
70138;SDS011;57507;43.056;0.150;2023-09-19T06:10:18;1.85;;;1.10;;
70138;SDS011;57507;43.056;0.150;2023-09-19T06:12:46;1.85;;;1.30;;
70138;SDS011;57507;43.056;0.150;2023-09-19T06:15:13;1.95;;;1.20;;
70138;SDS011;57507;43.056;0.150;2023-09-19T06:17:48;1.83;;;1.00;;
70138;SDS011;57507;43.056;0.150;2023-09-19T06:20:15;2.05;;;1.08;;
70138;SDS011;57507;43.056;0.150;2023-09-19T06:22:42;1.92;;;1.52;;
70138;SDS011;57507;43.056;0.150;2023-09-19T06:25:11;2.28;;;1.17;;
70138;SDS011;57507;43.056;0.150;2023-09-19T06:27:44;1.95;;;1.10;;
70138;SDS011;57507;43.056;0.150;2023-09-19T06:30:10;1.85;;;1.10;;
70138;SDS011;57507;43.056;0.150;2023-09-19T06:32:39;1.83;;;1.38;;
70138;SDS011;57507;43.056;0.150;2023-09-19T06:35:09;1.20;;;1.10;;
70138;SDS011;57507;43.056;0.150;2023-09-19T06:37:36;3.58;;;1.17;;
70138;SDS011;57507;43.056;0.150;2023-09-19T06:40:05;1.95;;;1.30;;
70138;SDS011;57507;43.056;0.150;2023-09-19T06:42:31;1.75;;;1.20;;
70138;SDS011;57507;43.056;0.150;2023-09-19T06:44:57;1.23;;;1.13;;
70138;SDS011;57507;43.056;0.150;2023-09-19T06:47:23;1.77;;;1.20;;
70138;SDS011;57507;43.056;0.150;2023-09-19T06:49:51;2.97;;;1.25;;
70138;SDS011;57507;43.056;0.150;2023-09-19T06:52:17;1.55;;;1.30;;
70138;SDS011;57507;43.056;0.150;2023-09-19T06:54:44;2.75;;;1.30;;
70138;SDS011;57507;43.056;0.150;2023-09-19T06:57:10;2.30;;;0.95;;
70138;SDS011;57507;43.056;0.150;2023-09-19T06:59:36;1.20;;;1.10;;
70138;SDS011;57507;43.056;0.150;2023-09-19T07:02:03;2.95;;;1.17;;
70138;SDS011;57507;43.056;0.150;2023-09-19T07:04:31;1.75;;;1.02;;
70138;SDS011;57507;43.056;0.150;2023-09-19T07:06:57;2.33;;;1.13;;
70138;SDS011;57507;43.056;0.150;2023-09-19T07:09:23;2.42;;;1.25;;
70138;SDS011;57507;43.056;0.150;2023-09-19T07:11:52;1.08;;;0.90;;
70138;SDS011;57507;43.056;0.150;2023-09-19T07:14:18;1.33;;;0.98;;
70138;SDS011;57507;43.056;0.150;2023-09-19T07:16:44;1.25;;;0.95;;
70138;SDS011;57507;43.056;0.150;2023-09-19T07:19:12;1.38;;;1.00;;
70138;SDS011;57507;43.056;0.150;2023-09-19T07:21:40;2.22;;;1.30;;
70138;SDS011;57507;43.056;0.150;2023-09-19T07:24:07;2.08;;;1.10;;
70138;SDS011;57507;43.056;0.150;2023-09-19T07:26:33;1.58;;;1.00;;
70138;SDS011;57507;43.056;0.150;2023-09-19T07:28:59;2.25;;;1.00;;
70138;SDS011;57507;43.056;0.150;2023-09-19T07:31:28;1.83;;;1.27;;
70138;SDS011;57507;43.056;0.150;2023-09-19T07:33:56;2.28;;;1.42;;
70138;SDS011;57507;43.056;0.150;2023-09-19T07:36:22;2.53;;;1.42;;
70138;SDS011;57507;43.056;0.150;2023-09-19T07:38:49;2.10;;;1.00;;
70138;SDS011;57507;43.056;0.150;2023-09-19T07:41:15;1.65;;;1.17;;
70138;SDS011;57507;43.056;0.150;2023-09-19T07:43:41;1.30;;;0.93;;
70138;SDS011;57507;43.056;0.150;2023-09-19T07:46:09;1.63;;;1.13;;
70138;SDS011;57507;43.056;0.150;2023-09-19T07:48:35;2.33;;;1.10;;
70138;SDS011;57507;43.056;0.150;2023-09-19T07:51:03;2.42;;;1.15;;
70138;SDS011;57507;43.056;0.150;2023-09-19T07:53:29;2.15;;;0.90;;
70138;SDS011;57507;43.056;0.150;2023-09-19T07:56:02;2.28;;;1.45;;
70138;SDS011;57507;43.056;0.150;2023-09-19T07:58:29;2.85;;;0.80;;
70138;SDS011;57507;43.056;0.150;2023-09-19T08:00:55;1.65;;;1.00;;
70138;SDS011;57507;43.056;0.150;2023-09-19T08:03:21;3.88;;;0.95;;
70138;SDS011;57507;43.056;0.150;2023-09-19T08:05:47;1.65;;;0.85;;
70138;SDS011;57507;43.056;0.150;2023-09-19T08:08:13;1.88;;;0.80;;
70138;SDS011;57507;43.056;0.150;2023-09-19T08:10:39;0.80;;;0.60;;
70138;SDS011;57507;43.056;0.150;2023-09-19T08:13:07;2.33;;;0.80;;
70138;SDS011;57507;43.056;0.150;2023-09-19T08:15:43;0.90;;;0.60;;
70138;SDS011;57507;43.056;0.150;2023-09-19T08:18:09;1.17;;;0.80;;
70138;SDS011;57507;43.056;0.150;2023-09-19T08:20:37;3.05;;;1.00;;
70138;SDS011;57507;43.056;0.150;2023-09-19T08:23:03;2.55;;;0.88;;
70138;SDS011;57507;43.056;0.150;2023-09-19T08:25:29;1.35;;;0.70;;
70138;SDS011;57507;43.056;0.150;2023-09-19T08:27:55;0.85;;;0.70;;
70138;SDS011;57507;43.056;0.150;2023-09-19T08:30:23;1.10;;;0.60;;
70138;SDS011;57507;43.056;0.150;2023-09-19T08:32:56;1.00;;;0.73;;
70138;SDS011;57507;43.056;0.150;2023-09-19T08:35:23;2.67;;;0.88;;
70138;SDS011;57507;43.056;0.150;2023-09-19T08:37:49;1.45;;;0.80;;
70138;SDS011;57507;43.056;0.150;2023-09-19T08:40:16;1.13;;;0.82;;
70138;SDS011;57507;43.056;0.150;2023-09-19T08:42:49;1.27;;;0.77;;
70138;SDS011;57507;43.056;0.150;2023-09-19T08:45:15;1.98;;;1.00;;
70138;SDS011;57507;43.056;0.150;2023-09-19T08:48:43;1.25;;;0.70;;
70138;SDS011;57507;43.056;0.150;2023-09-19T08:53:16;3.58;;;0.70;;
70138;SDS011;57507;43.056;0.150;2023-09-19T08:55:45;1.08;;;0.80;;
70138;SDS011;57507;43.056;0.150;2023-09-19T08:58:13;1.52;;;0.73;;
70138;SDS011;57507;43.056;0.150;2023-09-19T09:00:44;1.20;;;0.70;;
70138;SDS011;57507;43.056;0.150;2023-09-19T09:03:14;1.75;;;0.80;;
70138;SDS011;57507;43.056;0.150;2023-09-19T09:05:41;1.80;;;0.75;;
70138;SDS011;57507;43.056;0.150;2023-09-19T09:08:11;2.25;;;1.13;;
70138;SDS011;57507;43.056;0.150;2023-09-19T09:10:37;2.13;;;0.70;;
70138;SDS011;57507;43.056;0.150;2023-09-19T09:13:05;3.35;;;1.00;;
70138;SDS011;57507;43.056;0.150;2023-09-19T09:15:34;2.25;;;0.70;;
70138;SDS011;57507;43.056;0.150;2023-09-19T09:18:01;0.47;;;0.47;;
70138;SDS011;57507;43.056;0.150;2023-09-19T09:20:29;2.15;;;0.55;;
70138;SDS011;57507;43.056;0.150;2023-09-19T09:22:56;1.17;;;0.57;;
70138;SDS011;57507;43.056;0.150;2023-09-19T09:28:18;1.27;;;0.63;;
70138;SDS011;57507;43.056;0.150;2023-09-19T09:30:45;1.38;;;0.80;;
70138;SDS011;57507;43.056;0.150;2023-09-19T09:33:11;1.52;;;0.60;;
70138;SDS011;57507;43.056;0.150;2023-09-19T09:38:43;0.93;;;0.60;;
70138;SDS011;57507;43.056;0.150;2023-09-19T09:41:10;1.48;;;0.60;;
70138;SDS011;57507;43.056;0.150;2023-09-19T09:43:40;2.58;;;0.77;;
70138;SDS011;57507;43.056;0.150;2023-09-19T09:46:18;1.00;;;0.43;;
70138;SDS011;57507;43.056;0.150;2023-09-19T09:51:40;0.65;;;0.60;;
70138;SDS011;57507;43.056;0.150;2023-09-19T09:54:15;1.60;;;0.60;;
70138;SDS011;57507;43.056;0.150;2023-09-19T09:56:55;2.35;;;0.70;;
70138;SDS011;57507;43.056;0.150;2023-09-19T10:02:11;0.73;;;0.60;;
70138;SDS011;57507;43.056;0.150;2023-09-19T10:04:39;0.90;;;0.60;;
70138;SDS011;57507;43.056;0.150;2023-09-19T10:07:24;1.40;;;0.60;;
70138;SDS011;57507;43.056;0.150;2023-09-19T10:09:51;1.35;;;0.60;;
70138;SDS011;57507;43.056;0.150;2023-09-19T10:12:17;2.28;;;0.60;;
70138;SDS011;57507;43.056;0.150;2023-09-19T10:14:45;2.88;;;0.60;;
70138;SDS011;57507;43.056;0.150;2023-09-19T10:17:12;1.77;;;0.80;;
70138;SDS011;57507;43.056;0.150;2023-09-19T10:19:52;0.47;;;0.47;;
70138;SDS011;57507;43.056;0.150;2023-09-19T10:22:22;0.85;;;0.40;;
70138;SDS011;57507;43.056;0.150;2023-09-19T10:24:49;1.23;;;0.70;;
70138;SDS011;57507;43.056;0.150;2023-09-19T10:27:18;0.77;;;0.45;;
70138;SDS011;57507;43.056;0.150;2023-09-19T10:29:49;1.10;;;0.50;;
70138;SDS011;57507;43.056;0.150;2023-09-19T10:32:16;1.48;;;0.50;;
70138;SDS011;57507;43.056;0.150;2023-09-19T10:34:46;1.23;;;0.60;;
70138;SDS011;57507;43.056;0.150;2023-09-19T10:37:13;0.75;;;0.40;;
70138;SDS011;57507;43.056;0.150;2023-09-19T10:39:41;1.13;;;0.43;;
70138;SDS011;57507;43.056;0.150;2023-09-19T10:42:11;0.40;;;0.40;;
70138;SDS011;57507;43.056;0.150;2023-09-19T10:44:42;0.82;;;0.60;;
70138;SDS011;57507;43.056;0.150;2023-09-19T10:47:09;1.08;;;0.50;;
70138;SDS011;57507;43.056;0.150;2023-09-19T10:49:35;0.88;;;0.50;;
70138;SDS011;57507;43.056;0.150;2023-09-19T10:52:12;0.65;;;0.50;;
70138;SDS011;57507;43.056;0.150;2023-09-19T10:54:43;1.10;;;0.50;;
70138;SDS011;57507;43.056;0.150;2023-09-19T10:57:10;0.70;;;0.60;;
70138;SDS011;57507;43.056;0.150;2023-09-19T10:59:48;1.20;;;0.57;;
70138;SDS011;57507;43.056;0.150;2023-09-19T11:02:27;1.83;;;0.63;;
70138;SDS011;57507;43.056;0.150;2023-09-19T11:04:53;0.88;;;0.57;;
70138;SDS011;57507;43.056;0.150;2023-09-19T11:07:21;1.23;;;0.45;;
70138;SDS011;57507;43.056;0.150;2023-09-19T11:09:51;0.50;;;0.40;;
70138;SDS011;57507;43.056;0.150;2023-09-19T11:15:06;1.23;;;0.50;;
70138;SDS011;57507;43.056;0.150;2023-09-19T11:17:39;1.67;;;0.40;;
70138;SDS011;57507;43.056;0.150;2023-09-19T11:33:20;1.05;;;0.60;;
70138;SDS011;57507;43.056;0.150;2023-09-19T11:46:51;1.00;;;0.47;;
70138;SDS011;57507;43.056;0.150;2023-09-19T11:49:30;0.85;;;0.30;;
70138;SDS011;57507;43.056;0.150;2023-09-19T11:51:58;0.88;;;0.57;;
70138;SDS011;57507;43.056;0.150;2023-09-19T11:54:30;0.82;;;0.40;;
70138;SDS011;57507;43.056;0.150;2023-09-19T11:56:57;2.67;;;0.40;;
70138;SDS011;57507;43.056;0.150;2023-09-19T11:59:24;0.93;;;0.50;;
70138;SDS011;57507;43.056;0.150;2023-09-19T12:01:54;0.43;;;0.30;;
70138;SDS011;57507;43.056;0.150;2023-09-19T12:04:42;1.00;;;0.45;;
70138;SDS011;57507;43.056;0.150;2023-09-19T12:07:14;0.70;;;0.40;;
70138;SDS011;57507;43.056;0.150;2023-09-19T12:09:40;1.45;;;0.60;;
70138;SDS011;57507;43.056;0.150;2023-09-19T12:12:09;0.60;;;0.40;;
70138;SDS011;57507;43.056;0.150;2023-09-19T12:14:36;2.03;;;0.57;;
70138;SDS011;57507;43.056;0.150;2023-09-19T12:17:04;1.10;;;0.65;;
70138;SDS011;57507;43.056;0.150;2023-09-19T12:19:30;0.85;;;0.47;;
70138;SDS011;57507;43.056;0.150;2023-09-19T12:21:57;1.08;;;0.52;;
70138;SDS011;57507;43.056;0.150;2023-09-19T12:24:27;0.70;;;0.40;;
70138;SDS011;57507;43.056;0.150;2023-09-19T12:26:55;0.82;;;0.50;;
70138;SDS011;57507;43.056;0.150;2023-09-19T12:29:26;0.88;;;0.45;;
70138;SDS011;57507;43.056;0.150;2023-09-19T12:31:55;1.80;;;0.47;;
70138;SDS011;57507;43.056;0.150;2023-09-19T12:34:28;0.50;;;0.50;;
70138;SDS011;57507;43.056;0.150;2023-09-19T12:37:05;0.70;;;0.60;;
70138;SDS011;57507;43.056;0.150;2023-09-19T12:39:44;0.60;;;0.57;;
70138;SDS011;57507;43.056;0.150;2023-09-19T12:42:14;1.08;;;0.60;;
70138;SDS011;57507;43.056;0.150;2023-09-19T12:44:41;1.13;;;0.57;;
70138;SDS011;57507;43.056;0.150;2023-09-19T12:47:09;1.20;;;0.60;;
70138;SDS011;57507;43.056;0.150;2023-09-19T12:49:35;1.85;;;0.60;;
70138;SDS011;57507;43.056;0.150;2023-09-19T12:52:02;1.00;;;0.40;;
70138;SDS011;57507;43.056;0.150;2023-09-19T12:54:41;0.60;;;0.50;;
70138;SDS011;57507;43.056;0.150;2023-09-19T12:57:22;0.88;;;0.50;;
70138;SDS011;57507;43.056;0.150;2023-09-19T12:59:51;1.08;;;0.55;;
70138;SDS011;57507;43.056;0.150;2023-09-19T13:02:17;0.80;;;0.40;;
70138;SDS011;57507;43.056;0.150;2023-09-19T13:04:54;1.10;;;0.40;;
70138;SDS011;57507;43.056;0.150;2023-09-19T13:07:43;0.50;;;0.50;;
70138;SDS011;57507;43.056;0.150;2023-09-19T13:10:12;3.17;;;0.60;;
70138;SDS011;57507;43.056;0.150;2023-09-19T13:12:40;0.65;;;0.50;;
70138;SDS011;57507;43.056;0.150;2023-09-19T13:15:09;0.73;;;0.47;;
70138;SDS011;57507;43.056;0.150;2023-09-19T13:17:44;1.55;;;0.40;;
70138;SDS011;57507;43.056;0.150;2023-09-19T13:20:26;2.70;;;0.40;;
70138;SDS011;57507;43.056;0.150;2023-09-19T13:22:53;1.27;;;0.50;;
70138;SDS011;57507;43.056;0.150;2023-09-19T13:25:23;1.52;;;0.57;;
70138;SDS011;57507;43.056;0.150;2023-09-19T13:27:54;0.85;;;0.70;;
70138;SDS011;57507;43.056;0.150;2023-09-19T13:30:24;2.42;;;0.70;;
70138;SDS011;57507;43.056;0.150;2023-09-19T13:32:51;0.95;;;0.60;;
70138;SDS011;57507;43.056;0.150;2023-09-19T13:35:18;0.68;;;0.50;;
70138;SDS011;57507;43.056;0.150;2023-09-19T13:37:45;1.02;;;0.60;;
70138;SDS011;57507;43.056;0.150;2023-09-19T13:40:14;0.57;;;0.47;;
70138;SDS011;57507;43.056;0.150;2023-09-19T13:42:41;1.25;;;0.57;;
70138;SDS011;57507;43.056;0.150;2023-09-19T13:45:07;1.02;;;0.50;;
70138;SDS011;57507;43.056;0.150;2023-09-19T13:47:36;1.52;;;0.70;;
70138;SDS011;57507;43.056;0.150;2023-09-19T13:50:03;0.73;;;0.40;;
70138;SDS011;57507;43.056;0.150;2023-09-19T13:52:30;0.88;;;0.60;;
70138;SDS011;57507;43.056;0.150;2023-09-19T13:54:56;1.40;;;0.55;;
70138;SDS011;57507;43.056;0.150;2023-09-19T13:57:23;1.08;;;0.70;;
70138;SDS011;57507;43.056;0.150;2023-09-19T13:59:49;3.60;;;1.00;;
70138;SDS011;57507;43.056;0.150;2023-09-19T14:02:16;2.45;;;0.88;;
70138;SDS011;57507;43.056;0.150;2023-09-19T14:04:43;1.10;;;0.50;;
70138;SDS011;57507;43.056;0.150;2023-09-19T14:07:10;3.95;;;1.13;;
70138;SDS011;57507;43.056;0.150;2023-09-19T14:09:36;3.00;;;0.63;;
70138;SDS011;57507;43.056;0.150;2023-09-19T14:12:03;13.73;;;2.60;;
70138;SDS011;57507;43.056;0.150;2023-09-19T14:14:29;4.05;;;1.40;;
70138;SDS011;57507;43.056;0.150;2023-09-19T14:16:55;3.67;;;1.20;;
70138;SDS011;57507;43.056;0.150;2023-09-19T14:19:21;6.38;;;1.83;;
70138;SDS011;57507;43.056;0.150;2023-09-19T14:21:47;6.25;;;1.58;;
70138;SDS011;57507;43.056;0.150;2023-09-19T14:24:17;4.50;;;1.08;;
70138;SDS011;57507;43.056;0.150;2023-09-19T14:26:44;5.22;;;1.15;;
70138;SDS011;57507;43.056;0.150;2023-09-19T14:29:10;2.85;;;1.20;;
70138;SDS011;57507;43.056;0.150;2023-09-19T14:31:39;2.30;;;0.90;;
70138;SDS011;57507;43.056;0.150;2023-09-19T14:34:08;1.85;;;0.70;;
70138;SDS011;57507;43.056;0.150;2023-09-19T14:36:37;3.00;;;0.88;;
70138;SDS011;57507;43.056;0.150;2023-09-19T14:39:06;1.55;;;0.52;;
70138;SDS011;57507;43.056;0.150;2023-09-19T14:41:33;3.33;;;0.80;;
70138;SDS011;57507;43.056;0.150;2023-09-19T14:44:01;2.83;;;0.93;;
70138;SDS011;57507;43.056;0.150;2023-09-19T14:46:27;3.17;;;0.93;;
70138;SDS011;57507;43.056;0.150;2023-09-19T14:48:53;1.67;;;0.70;;
70138;SDS011;57507;43.056;0.150;2023-09-19T14:51:19;2.15;;;0.60;;
70138;SDS011;57507;43.056;0.150;2023-09-19T14:53:46;3.20;;;1.00;;
70138;SDS011;57507;43.056;0.150;2023-09-19T14:56:12;1.25;;;0.73;;
70138;SDS011;57507;43.056;0.150;2023-09-19T14:58:42;3.13;;;0.70;;
70138;SDS011;57507;43.056;0.150;2023-09-19T15:01:09;1.85;;;0.90;;
70138;SDS011;57507;43.056;0.150;2023-09-19T15:03:35;0.65;;;0.50;;
70138;SDS011;57507;43.056;0.150;2023-09-19T15:06:05;1.60;;;0.65;;
70138;SDS011;57507;43.056;0.150;2023-09-19T15:08:34;2.17;;;0.47;;
70138;SDS011;57507;43.056;0.150;2023-09-19T15:11:01;2.65;;;0.85;;
70138;SDS011;57507;43.056;0.150;2023-09-19T15:13:30;1.15;;;0.60;;
70138;SDS011;57507;43.056;0.150;2023-09-19T15:16:03;4.00;;;0.90;;
70138;SDS011;57507;43.056;0.150;2023-09-19T15:18:29;3.35;;;0.70;;
70138;SDS011;57507;43.056;0.150;2023-09-19T15:20:56;3.22;;;0.63;;
70138;SDS011;57507;43.056;0.150;2023-09-19T15:23:22;1.70;;;0.60;;
70138;SDS011;57507;43.056;0.150;2023-09-19T15:25:48;1.70;;;0.60;;
70138;SDS011;57507;43.056;0.150;2023-09-19T15:28:14;1.52;;;0.68;;
70138;SDS011;57507;43.056;0.150;2023-09-19T15:30:40;2.67;;;0.60;;
70138;SDS011;57507;43.056;0.150;2023-09-19T15:33:06;2.03;;;0.70;;
70138;SDS011;57507;43.056;0.150;2023-09-19T15:35:33;3.58;;;0.70;;
70138;SDS011;57507;43.056;0.150;2023-09-19T15:38:02;1.33;;;0.60;;
70138;SDS011;57507;43.056;0.150;2023-09-19T15:40:28;1.55;;;0.70;;
70138;SDS011;57507;43.056;0.150;2023-09-19T15:42:54;0.88;;;0.50;;
70138;SDS011;57507;43.056;0.150;2023-09-19T15:45:25;0.63;;;0.40;;
70138;SDS011;57507;43.056;0.150;2023-09-19T15:47:51;1.17;;;0.60;;
70138;SDS011;57507;43.056;0.150;2023-09-19T15:50:18;1.73;;;0.50;;
70138;SDS011;57507;43.056;0.150;2023-09-19T15:52:44;0.80;;;0.50;;